createdAt,value
2023-04-20T00:00:47.575Z,3.20
2023-04-20T00:03:14.364Z,2.78
2023-04-20T00:05:40.823Z,2.63
2023-04-20T00:08:07.958Z,3.20
2023-04-20T00:10:34.455Z,2.95
2023-04-20T00:13:00.940Z,2.88
2023-04-20T00:15:27.371Z,2.60
2023-04-20T00:17:53.787Z,2.78
2023-04-20T00:20:20.352Z,2.78
2023-04-20T00:22:46.724Z,2.53
2023-04-20T00:25:13.094Z,2.90
2023-04-20T00:27:39.576Z,2.70
2023-04-20T00:30:07.121Z,2.75
2023-04-20T00:32:33.545Z,2.63
2023-04-20T00:34:59.962Z,2.55
2023-04-20T00:37:26.399Z,2.28
2023-04-20T00:39:52.892Z,3.10
2023-04-20T00:42:21.563Z,2.88
2023-04-20T00:44:49.555Z,2.67
2023-04-20T00:47:16.700Z,2.70
2023-04-20T00:49:43.103Z,2.78
2023-04-20T00:52:09.534Z,2.55
2023-04-20T00:54:36.410Z,2.28
2023-04-20T00:57:04.263Z,2.78
2023-04-20T00:59:30.615Z,2.58
2023-04-20T01:01:57.899Z,2.53
2023-04-20T01:04:24.839Z,2.80
2023-04-20T01:06:51.285Z,3.17
2023-04-20T01:09:17.788Z,2.53
2023-04-20T01:11:44.391Z,3.15
2023-04-20T01:14:10.834Z,3.10
2023-04-20T01:16:37.341Z,2.90
2023-04-20T01:19:03.822Z,3.38
2023-04-20T01:21:31.017Z,2.90
2023-04-20T01:23:57.487Z,2.60
2023-04-20T01:26:25.477Z,2.60
2023-04-20T01:28:51.952Z,2.70
2023-04-20T01:31:19.014Z,2.90
2023-04-20T01:33:45.700Z,2.42
2023-04-20T01:36:12.607Z,3.65
2023-04-20T01:38:39.133Z,2.70
2023-04-20T01:41:07.680Z,2.85
2023-04-20T01:43:35.333Z,2.45
2023-04-20T01:46:01.964Z,2.63
2023-04-20T01:48:28.722Z,2.40
2023-04-20T01:50:55.191Z,2.85
2023-04-20T01:53:21.817Z,2.65
2023-04-20T01:55:50.349Z,3.00
2023-04-20T01:58:16.948Z,2.92
2023-04-20T02:00:44.162Z,2.63
2023-04-20T02:03:11.114Z,2.78
2023-04-20T02:05:37.672Z,2.80
2023-04-20T02:08:04.369Z,2.35
2023-04-20T02:10:30.843Z,3.30
2023-04-20T02:12:57.452Z,2.45
2023-04-20T02:15:23.925Z,2.33
2023-04-20T02:17:53.103Z,2.47
2023-04-20T02:20:19.962Z,2.80
2023-04-20T02:22:46.448Z,2.35
2023-04-20T02:25:14.064Z,2.58
2023-04-20T02:27:40.579Z,2.75
2023-04-20T02:30:08.257Z,2.92
2023-04-20T02:32:35.126Z,2.53
2023-04-20T02:35:01.758Z,2.72
2023-04-20T02:37:28.264Z,2.88
2023-04-20T02:39:54.626Z,2.65
2023-04-20T02:42:21.038Z,2.20
2023-04-20T02:44:47.480Z,2.60
2023-04-20T02:47:13.838Z,2.65
2023-04-20T02:49:40.210Z,2.05
2023-04-20T02:52:06.649Z,2.70
2023-04-20T02:54:33.107Z,2.50
2023-04-20T02:56:59.498Z,2.72
2023-04-20T02:59:25.887Z,2.22
2023-04-20T03:01:52.523Z,2.50
2023-04-20T03:04:19.351Z,2.88
2023-04-20T03:06:45.889Z,2.63
2023-04-20T03:09:12.281Z,2.42
2023-04-20T03:11:38.707Z,2.55
2023-04-20T03:14:06.226Z,2.33
2023-04-20T03:16:32.726Z,2.20
2023-04-20T03:18:59.390Z,2.25
2023-04-20T03:21:25.849Z,2.70
2023-04-20T03:23:52.294Z,2.40
2023-04-20T03:26:18.723Z,2.80
2023-04-20T03:28:45.273Z,2.38
2023-04-20T03:31:12.020Z,2.90
2023-04-20T03:33:38.435Z,2.10
2023-04-20T03:36:05.896Z,2.35
2023-04-20T03:38:32.261Z,2.60
2023-04-20T03:40:58.660Z,2.55
2023-04-20T03:43:25.057Z,2.60
2023-04-20T03:45:51.463Z,2.20
2023-04-20T03:48:18.090Z,2.20
2023-04-20T03:50:44.576Z,1.90
2023-04-20T03:53:10.927Z,2.47
2023-04-20T03:55:37.310Z,2.55
2023-04-20T03:58:06.791Z,2.20
2023-04-20T04:00:33.225Z,2.38
2023-04-20T04:02:59.901Z,2.38
2023-04-20T04:05:26.654Z,2.67
2023-04-20T04:07:53.088Z,2.60
2023-04-20T04:10:20.358Z,2.95
2023-04-20T04:12:46.770Z,2.60
2023-04-20T04:15:13.210Z,2.75
2023-04-20T04:17:39.791Z,2.97
2023-04-20T04:20:09.635Z,2.88
2023-04-20T04:22:36.014Z,2.50
2023-04-20T04:25:02.412Z,3.20
2023-04-20T04:27:34.580Z,2.75
2023-04-20T04:30:03.564Z,2.88
2023-04-20T04:32:30.234Z,2.88
2023-04-20T04:34:57.570Z,3.25
2023-04-20T04:37:23.977Z,3.95
2023-04-20T04:39:51.031Z,3.40
2023-04-20T04:42:17.505Z,3.13
2023-04-20T04:44:44.919Z,2.90
2023-04-20T04:47:14.880Z,3.72
2023-04-20T04:49:42.594Z,3.45
2023-04-20T04:52:09.082Z,3.78
2023-04-20T04:54:35.549Z,3.97
2023-04-20T04:57:02.618Z,3.83
2023-04-20T04:59:28.985Z,3.35
2023-04-20T05:01:55.464Z,3.60
2023-04-20T05:04:22.065Z,3.47
2023-04-20T05:06:48.595Z,3.60
2023-04-20T05:09:16.042Z,4.00
2023-04-20T05:11:42.724Z,3.83
2023-04-20T05:14:09.094Z,3.80
2023-04-20T05:16:35.764Z,4.20
2023-04-20T05:19:02.149Z,4.03
2023-04-20T05:21:28.498Z,4.20
2023-04-20T05:23:54.894Z,4.57
2023-04-20T05:26:21.279Z,4.53
2023-04-20T05:28:47.649Z,4.70
2023-04-20T05:31:13.995Z,5.38
2023-04-20T05:33:40.691Z,4.45
2023-04-20T05:36:10.601Z,4.68
2023-04-20T05:38:36.969Z,4.68
2023-04-20T05:41:03.386Z,4.78
2023-04-20T05:43:29.762Z,4.47
2023-04-20T05:45:56.193Z,4.60
2023-04-20T05:48:22.562Z,5.20
2023-04-20T05:50:48.987Z,5.35
2023-04-20T05:53:15.324Z,5.10
2023-04-20T05:55:41.861Z,4.93
2023-04-20T05:58:08.295Z,5.95
2023-04-20T06:00:35.519Z,5.30
2023-04-20T06:03:02.205Z,5.10
2023-04-20T06:05:28.755Z,5.40
2023-04-20T06:07:55.277Z,5.68
2023-04-20T06:10:21.775Z,5.80
2023-04-20T06:12:48.194Z,6.03
2023-04-20T06:15:14.716Z,5.82
2023-04-20T06:17:41.358Z,6.03
2023-04-20T06:20:12.030Z,5.38
2023-04-20T06:22:45.535Z,6.35
2023-04-20T06:25:12.597Z,6.45
2023-04-20T06:27:39.446Z,6.15
2023-04-20T06:30:15.169Z,6.40
2023-04-20T06:32:44.584Z,6.70
2023-04-20T06:35:11.057Z,6.65
2023-04-20T06:37:37.713Z,6.65
2023-04-20T06:40:08.845Z,5.95
2023-04-20T06:42:35.813Z,5.85
2023-04-20T06:45:02.226Z,4.88
2023-04-20T06:47:31.727Z,3.40
2023-04-20T06:49:58.942Z,3.78
2023-04-20T06:52:25.361Z,3.33
2023-04-20T06:54:51.857Z,3.70
2023-04-20T06:57:18.197Z,3.38
2023-04-20T06:59:44.574Z,3.72
2023-04-20T07:02:11.066Z,3.38
2023-04-20T07:04:37.578Z,3.28
2023-04-20T07:07:04.011Z,3.42
2023-04-20T07:09:30.435Z,3.53
2023-04-20T07:11:56.836Z,3.53
2023-04-20T07:14:23.304Z,3.53
2023-04-20T07:16:53.002Z,4.18
2023-04-20T07:19:19.798Z,3.80
2023-04-20T07:21:46.529Z,4.03
2023-04-20T07:24:12.904Z,4.25
2023-04-20T07:26:39.301Z,3.63
2023-04-20T07:29:09.729Z,3.97
2023-04-20T07:31:36.401Z,3.85
2023-04-20T07:34:03.135Z,4.32
2023-04-20T07:36:29.759Z,4.28
2023-04-20T07:38:56.271Z,3.95
2023-04-20T07:41:23.142Z,4.22
2023-04-20T07:43:49.551Z,4.05
2023-04-20T07:46:22.935Z,4.28
2023-04-20T07:48:49.521Z,3.88
2023-04-20T07:51:16.047Z,4.30
2023-04-20T07:53:42.689Z,4.43
2023-04-20T07:56:09.128Z,4.35
2023-04-20T07:58:38.411Z,4.47
2023-04-20T08:01:04.972Z,4.00
2023-04-20T08:03:31.988Z,3.95
2023-04-20T08:05:58.840Z,4.47
2023-04-20T08:08:25.452Z,4.28
2023-04-20T08:10:51.832Z,4.50
2023-04-20T08:13:18.312Z,4.60
2023-04-20T08:15:44.654Z,4.93
2023-04-20T08:18:11.484Z,5.40
2023-04-20T08:20:37.909Z,4.95
2023-04-20T08:23:04.346Z,5.13
2023-04-20T08:25:32.347Z,5.60
2023-04-20T08:27:58.770Z,5.25
2023-04-20T08:30:27.129Z,6.07
2023-04-20T08:32:53.644Z,6.03
2023-04-20T08:35:20.124Z,6.00
2023-04-20T08:37:46.513Z,6.00
2023-04-20T08:40:13.078Z,6.38
2023-04-20T08:42:39.477Z,5.57
2023-04-20T08:45:06.433Z,6.55
2023-04-20T08:47:33.946Z,6.72
2023-04-20T08:50:02.929Z,7.15
2023-04-20T08:52:29.301Z,7.57
2023-04-20T08:54:57.784Z,7.00
2023-04-20T08:57:25.661Z,6.90
2023-04-20T08:59:52.073Z,6.97
2023-04-20T09:02:18.511Z,7.38
2023-04-20T09:04:49.015Z,6.90
2023-04-20T09:07:20.842Z,8.10
2023-04-20T09:09:57.752Z,7.50
2023-04-20T09:12:24.781Z,8.07
2023-04-20T09:14:52.782Z,8.35
2023-04-20T09:17:31.589Z,7.97
2023-04-20T09:19:58.056Z,7.28
2023-04-20T09:22:32.754Z,7.60
2023-04-20T09:24:59.609Z,7.85
2023-04-20T09:27:26.421Z,7.50
2023-04-20T09:30:00.961Z,7.05
2023-04-20T09:32:28.868Z,7.63
2023-04-20T09:34:56.235Z,5.95
2023-04-20T09:37:23.017Z,5.00
2023-04-20T09:39:49.906Z,4.82
2023-04-20T09:42:17.078Z,4.32
2023-04-20T09:44:44.108Z,4.07
2023-04-20T09:47:18.703Z,3.70
2023-04-20T09:49:48.604Z,3.95
2023-04-20T09:52:19.044Z,3.40
2023-04-20T09:54:46.246Z,3.03
2023-04-20T09:57:13.964Z,2.90
2023-04-20T09:59:46.225Z,3.30
2023-04-20T10:02:13.732Z,3.28
2023-04-20T10:04:56.403Z,2.97
2023-04-20T10:07:27.630Z,3.15
2023-04-20T10:10:15.644Z,3.33
2023-04-20T10:12:55.043Z,3.10
2023-04-20T10:15:22.039Z,2.90
2023-04-20T10:17:49.318Z,2.90
2023-04-20T10:20:27.308Z,2.80
2023-04-20T10:23:06.083Z,2.88
2023-04-20T10:25:32.447Z,2.72
2023-04-20T10:28:06.148Z,3.20
2023-04-20T10:30:33.632Z,1.90
2023-04-20T10:33:07.394Z,2.30
2023-04-20T10:35:55.032Z,2.10
2023-04-20T10:38:35.954Z,2.10
2023-04-20T10:41:21.117Z,2.30
2023-04-20T10:43:47.661Z,2.40
2023-04-20T10:46:22.277Z,2.38
2023-04-20T10:48:56.407Z,2.60
2023-04-20T10:51:23.454Z,2.80
2023-04-20T10:54:07.964Z,3.00
2023-04-20T10:56:46.269Z,2.60
2023-04-20T10:59:14.558Z,2.65
2023-04-20T11:01:41.522Z,2.78
2023-04-20T11:04:10.523Z,1.75
2023-04-20T11:06:39.482Z,1.70
2023-04-20T11:09:26.128Z,1.20
2023-04-20T11:12:02.605Z,1.23
2023-04-20T11:14:29.705Z,1.45
2023-04-20T11:16:56.425Z,1.80
2023-04-20T11:19:30.582Z,1.50
2023-04-20T11:21:57.421Z,1.70
2023-04-20T11:24:25.875Z,1.40
2023-04-20T11:26:56.063Z,1.75
2023-04-20T11:29:33.431Z,1.58
2023-04-20T11:32:02.339Z,1.65
2023-04-20T11:34:29.121Z,1.50
2023-04-20T11:36:56.938Z,1.42
2023-04-20T11:39:25.269Z,1.75
2023-04-20T11:41:52.504Z,2.10
2023-04-20T11:44:21.298Z,1.67
2023-04-20T11:46:53.246Z,2.13
2023-04-20T11:49:23.876Z,1.70
2023-04-20T11:51:51.018Z,1.85
2023-04-20T11:54:21.766Z,1.70
2023-04-20T11:56:48.299Z,1.42
2023-04-20T11:59:16.667Z,1.33
2023-04-20T12:01:43.328Z,1.42
2023-04-20T12:04:10.080Z,1.50
2023-04-20T12:06:36.717Z,1.42
2023-04-20T12:09:03.231Z,1.52
2023-04-20T12:11:29.641Z,1.88
2023-04-20T12:13:56.204Z,2.25
2023-04-20T12:16:22.702Z,1.80
2023-04-20T12:18:49.150Z,2.20
2023-04-20T12:21:15.634Z,2.28
2023-04-20T12:23:43.833Z,1.85
2023-04-20T12:26:10.452Z,1.73
2023-04-20T12:28:36.881Z,1.60
2023-04-20T12:31:03.539Z,1.60
2023-04-20T12:33:29.958Z,2.20
2023-04-20T12:35:56.357Z,1.60
2023-04-20T12:38:22.787Z,1.52
2023-04-20T12:40:49.140Z,1.52
2023-04-20T12:43:15.980Z,2.05
2023-04-20T12:45:42.364Z,2.05
2023-04-20T12:48:08.756Z,1.88
2023-04-20T12:50:35.267Z,2.35
2023-04-20T12:53:02.299Z,2.05
2023-04-20T12:55:28.864Z,2.20
2023-04-20T12:57:55.204Z,2.25
2023-04-20T13:00:21.813Z,2.50
2023-04-20T13:02:48.469Z,1.92
2023-04-20T13:05:15.619Z,2.22
2023-04-20T13:07:42.048Z,2.35
2023-04-20T13:10:08.980Z,2.20
2023-04-20T13:12:35.380Z,2.33
2023-04-20T13:15:01.959Z,2.20
2023-04-20T13:17:28.363Z,2.25
2023-04-20T13:19:54.815Z,2.20
2023-04-20T13:22:21.227Z,2.65
2023-04-20T13:24:47.596Z,2.58
2023-04-20T13:27:14.332Z,2.70
2023-04-20T13:29:41.366Z,2.55
2023-04-20T13:32:07.869Z,2.53
2023-04-20T13:34:34.433Z,2.75
2023-04-20T13:37:01.031Z,2.75
2023-04-20T13:39:27.860Z,2.72
2023-04-20T13:41:54.232Z,2.47
2023-04-20T13:44:21.176Z,2.72
2023-04-20T13:46:48.236Z,3.05
2023-04-20T13:49:16.684Z,2.78
2023-04-20T13:51:43.144Z,3.25
2023-04-20T13:54:09.466Z,2.60
2023-04-20T13:56:36.052Z,3.15
2023-04-20T13:59:05.211Z,3.67
2023-04-20T14:01:31.790Z,3.03
2023-04-20T14:03:58.547Z,2.92
2023-04-20T14:06:25.250Z,2.97
2023-04-20T14:08:51.783Z,3.17
2023-04-20T14:11:18.278Z,3.13
2023-04-20T14:13:44.905Z,3.03
2023-04-20T14:16:13.489Z,3.25
2023-04-20T14:18:40.371Z,3.00
2023-04-20T14:21:07.403Z,3.08
2023-04-20T14:23:33.744Z,3.53
2023-04-20T14:26:00.942Z,3.60
2023-04-20T14:28:27.535Z,2.97
2023-04-20T14:30:53.892Z,3.42
2023-04-20T14:33:20.337Z,2.90
2023-04-20T14:35:46.708Z,2.80
2023-04-20T14:38:13.113Z,3.17
2023-04-20T14:40:39.522Z,3.17
2023-04-20T14:43:05.985Z,3.08
2023-04-20T14:45:32.373Z,3.15
2023-04-20T14:47:58.908Z,3.60
2023-04-20T14:50:27.439Z,3.13
2023-04-20T14:52:54.695Z,3.45
2023-04-20T14:55:25.700Z,3.30
2023-04-20T14:57:57.069Z,3.70
2023-04-20T15:00:24.703Z,3.47
2023-04-20T15:02:51.458Z,3.75
2023-04-20T15:05:18.207Z,3.53
2023-04-20T15:07:45.782Z,3.72
2023-04-20T15:10:12.987Z,3.90
2023-04-20T15:12:43.023Z,3.80
2023-04-20T15:15:12.905Z,4.07
2023-04-20T15:17:39.382Z,3.83
2023-04-20T15:20:07.129Z,4.03
2023-04-20T15:22:33.460Z,4.38
2023-04-20T15:24:59.967Z,4.22
2023-04-20T15:27:26.391Z,5.93
2023-04-20T15:29:52.833Z,4.18
2023-04-20T15:32:19.310Z,3.47
2023-04-20T15:34:45.846Z,3.60
2023-04-20T15:37:12.287Z,3.38
2023-04-20T15:39:38.616Z,3.42
2023-04-20T15:42:05.051Z,3.63
2023-04-20T15:44:31.700Z,3.53
2023-04-20T15:46:58.393Z,4.30
2023-04-20T15:49:24.794Z,4.68
2023-04-20T15:51:51.242Z,4.03
2023-04-20T15:54:19.470Z,4.35
2023-04-20T15:56:46.182Z,4.90
2023-04-20T15:59:12.608Z,4.72
2023-04-20T16:01:39.027Z,4.25
2023-04-20T16:04:06.941Z,4.38
2023-04-20T16:06:33.630Z,4.05
2023-04-20T16:09:00.060Z,4.05
2023-04-20T16:11:26.410Z,4.70
2023-04-20T16:13:55.868Z,4.65
2023-04-20T16:16:22.309Z,4.32
2023-04-20T16:18:49.026Z,4.00
2023-04-20T16:21:15.456Z,4.50
2023-04-20T16:23:41.849Z,4.47
2023-04-20T16:26:08.230Z,4.25
2023-04-20T16:28:34.812Z,4.63
2023-04-20T16:31:01.316Z,3.88
2023-04-20T16:33:29.648Z,4.15
2023-04-20T16:35:56.077Z,4.70
2023-04-20T16:38:22.622Z,4.47
2023-04-20T16:40:49.052Z,4.28
2023-04-20T16:43:15.820Z,4.40
2023-04-20T16:45:42.770Z,4.30
2023-04-20T16:48:09.532Z,4.30
2023-04-20T16:50:38.118Z,4.40
2023-04-20T16:53:05.547Z,4.15
2023-04-20T16:55:32.288Z,4.40
2023-04-20T16:58:01.253Z,4.22
2023-04-20T17:00:32.155Z,4.05
2023-04-20T17:03:01.302Z,4.05
2023-04-20T17:05:27.985Z,4.05
2023-04-20T17:07:54.545Z,4.05
2023-04-20T17:10:21.336Z,4.53
2023-04-20T17:12:47.763Z,3.97
2023-04-20T17:15:14.169Z,5.07
2023-04-20T17:17:41.305Z,4.50
2023-04-20T17:20:08.550Z,4.20
2023-04-20T17:22:35.494Z,4.13
2023-04-20T17:25:02.269Z,3.63
2023-04-20T17:27:28.743Z,3.75
2023-04-20T17:29:56.049Z,3.55
2023-04-20T17:32:22.701Z,3.13
2023-04-20T17:34:51.339Z,4.05
2023-04-20T17:37:18.145Z,3.20
2023-04-20T17:39:44.810Z,3.80
2023-04-20T17:42:14.170Z,3.35
2023-04-20T17:44:40.656Z,3.90
2023-04-20T17:47:09.519Z,3.83
2023-04-20T17:49:36.540Z,4.00
2023-04-20T17:52:03.650Z,4.07
2023-04-20T17:54:30.073Z,3.97
2023-04-20T17:56:57.960Z,4.20
2023-04-20T17:59:24.323Z,3.60
2023-04-20T18:01:50.966Z,3.97
2023-04-20T18:04:18.811Z,4.15
2023-04-20T18:06:45.543Z,3.75
2023-04-20T18:09:14.073Z,4.07
2023-04-20T18:11:41.171Z,3.72
2023-04-20T18:14:07.581Z,3.88
2023-04-20T18:16:33.997Z,4.18
2023-04-20T18:19:00.373Z,4.45
2023-04-20T18:21:29.641Z,4.13
2023-04-20T18:23:56.070Z,4.13
2023-04-20T18:26:23.761Z,4.28
2023-04-20T18:28:50.219Z,4.28
2023-04-20T18:31:16.729Z,4.28
2023-04-20T18:33:46.810Z,4.63
2023-04-20T18:36:13.361Z,4.47
2023-04-20T18:38:39.804Z,4.57
2023-04-20T18:41:06.320Z,4.50
2023-04-20T18:43:32.847Z,4.70
2023-04-20T18:45:59.342Z,4.18
2023-04-20T18:48:25.823Z,4.38
2023-04-20T18:50:52.231Z,4.20
2023-04-20T18:53:18.675Z,3.97
2023-04-20T18:55:45.094Z,3.90
2023-04-20T18:58:11.499Z,4.30
2023-04-20T19:00:37.877Z,4.00
2023-04-20T19:03:05.774Z,4.53
2023-04-20T19:05:32.909Z,4.25
2023-04-20T19:07:59.331Z,4.50
2023-04-20T19:10:26.593Z,4.22
2023-04-20T19:12:53.187Z,4.30
2023-04-20T19:15:25.399Z,4.00
2023-04-20T19:17:54.385Z,4.13
2023-04-20T19:20:20.945Z,4.32
2023-04-20T19:22:47.369Z,4.45
2023-04-20T19:25:13.864Z,4.25
2023-04-20T19:27:40.452Z,4.50
2023-04-20T19:30:08.324Z,4.63
2023-04-20T19:32:36.003Z,4.63
2023-04-20T19:35:02.987Z,4.97
2023-04-20T19:37:29.365Z,4.88
2023-04-20T19:39:55.952Z,4.65
2023-04-20T19:42:22.818Z,5.10
2023-04-20T19:44:49.216Z,4.95
2023-04-20T19:47:15.611Z,5.35
2023-04-20T19:49:42.000Z,5.30
2023-04-20T19:52:08.404Z,5.00
2023-04-20T19:54:35.389Z,5.90
2023-04-20T19:57:01.855Z,5.57
2023-04-20T19:59:29.933Z,5.65
2023-04-20T20:01:56.429Z,6.18
2023-04-20T20:04:23.161Z,5.65
2023-04-20T20:06:50.690Z,6.13
2023-04-20T20:09:18.470Z,6.05
2023-04-20T20:11:50.108Z,6.18
2023-04-20T20:14:17.132Z,6.80
2023-04-20T20:16:43.978Z,6.45
2023-04-20T20:19:10.356Z,6.85
2023-04-20T20:21:36.910Z,7.55
2023-04-20T20:24:03.481Z,7.72
2023-04-20T20:26:29.879Z,7.45
2023-04-20T20:28:56.384Z,8.00
2023-04-20T20:31:22.989Z,8.07
2023-04-20T20:33:49.458Z,7.90
2023-04-20T20:36:17.616Z,7.75
2023-04-20T20:38:43.973Z,8.32
2023-04-20T20:41:10.839Z,7.95
2023-04-20T20:43:37.446Z,8.98
2023-04-20T20:46:04.316Z,9.00
2023-04-20T20:48:31.479Z,9.27
2023-04-20T20:50:58.320Z,10.20
2023-04-20T20:53:24.810Z,9.38
2023-04-20T20:55:53.129Z,10.27
2023-04-20T20:58:19.547Z,10.75
2023-04-20T21:00:47.198Z,11.10
2023-04-20T21:03:14.009Z,11.38
2023-04-20T21:05:40.618Z,11.80
2023-04-20T21:08:09.739Z,11.93
2023-04-20T21:10:36.451Z,13.07
2023-04-20T21:13:03.985Z,13.27
2023-04-20T21:15:30.439Z,14.63
2023-04-20T21:17:56.855Z,13.90
2023-04-20T21:20:23.267Z,13.90
2023-04-20T21:22:49.632Z,14.13
2023-04-20T21:25:16.007Z,15.00
2023-04-20T21:27:42.407Z,14.65
2023-04-20T21:30:09.451Z,14.45
2023-04-20T21:32:35.876Z,16.10
2023-04-20T21:35:02.300Z,15.07
2023-04-20T21:37:28.640Z,16.35
2023-04-20T21:39:55.001Z,15.68
2023-04-20T21:42:21.343Z,16.55
2023-04-20T21:44:47.694Z,15.65
2023-04-20T21:47:14.137Z,15.63
2023-04-20T21:49:40.592Z,16.40
2023-04-20T21:52:06.979Z,17.20
2023-04-20T21:54:34.785Z,17.17
2023-04-20T21:57:01.739Z,16.92
2023-04-20T21:59:28.066Z,17.35
2023-04-20T22:01:54.475Z,18.23
2023-04-20T22:04:21.132Z,17.00
2023-04-20T22:06:48.786Z,17.65
2023-04-20T22:09:17.901Z,17.60
2023-04-20T22:11:45.124Z,17.27
2023-04-20T22:14:11.528Z,16.73
2023-04-20T22:16:37.880Z,19.63
2023-04-20T22:19:04.280Z,19.00
2023-04-20T22:21:31.845Z,19.27
2023-04-20T22:23:58.269Z,20.08
2023-04-20T22:26:24.749Z,20.50
2023-04-20T22:28:51.182Z,19.38
2023-04-20T22:31:17.702Z,19.05
2023-04-20T22:33:44.240Z,19.52
2023-04-20T22:36:10.714Z,19.98
2023-04-20T22:38:37.544Z,20.70
2023-04-20T22:41:04.108Z,20.88
2023-04-20T22:43:30.544Z,20.55
2023-04-20T22:45:57.124Z,21.35
2023-04-20T22:48:23.510Z,21.60
2023-04-20T22:50:49.888Z,23.23
2023-04-20T22:53:16.289Z,23.73
2023-04-20T22:55:42.754Z,22.75
2023-04-20T22:58:09.345Z,20.85
2023-04-20T23:00:35.787Z,22.23
2023-04-20T23:03:02.275Z,21.70
2023-04-20T23:05:28.940Z,24.02
2023-04-20T23:07:56.208Z,22.15
2023-04-20T23:10:28.382Z,23.73
2023-04-20T23:12:55.403Z,24.98
2023-04-20T23:15:21.897Z,21.65
2023-04-20T23:17:48.332Z,23.52
2023-04-20T23:20:15.099Z,23.50
2023-04-20T23:22:41.581Z,23.50
2023-04-20T23:25:09.575Z,23.02
2023-04-20T23:27:36.244Z,23.73
2023-04-20T23:30:02.737Z,23.77
2023-04-20T23:32:29.217Z,23.42
2023-04-20T23:34:55.711Z,23.10
2023-04-20T23:37:22.105Z,23.88
2023-04-20T23:39:48.532Z,23.92
2023-04-20T23:42:14.915Z,24.10
2023-04-20T23:44:41.321Z,23.88
2023-04-20T23:47:07.726Z,22.90
2023-04-20T23:49:34.169Z,24.35
2023-04-20T23:52:01.121Z,23.60
2023-04-20T23:54:27.497Z,21.77
2023-04-20T23:56:55.395Z,24.05
2023-04-20T23:59:21.791Z,23.05
